sensor_id;sensor_type;location;lat;lon;timestamp;noise_LAeq;noise_LA_min;noise_LA_max;noise_LA01;noise_LA95
61249;Laerm;47119;49.130;9.218;2023-01-15T00:01:58;42.23;32.19;51.23;;
61249;Laerm;47119;49.130;9.218;2023-01-15T00:04:25;46.65;33.66;63.90;;
61249;Laerm;47119;49.130;9.218;2023-01-15T00:06:52;46.19;32.99;63.63;;
61249;Laerm;47119;49.130;9.218;2023-01-15T00:09:20;48.75;34.08;66.79;;
61249;Laerm;47119;49.130;9.218;2023-01-15T00:11:47;46.40;33.84;60.25;;
61249;Laerm;47119;49.130;9.218;2023-01-15T00:14:14;46.71;32.27;62.67;;
61249;Laerm;47119;49.130;9.218;2023-01-15T00:16:41;41.48;32.07;52.93;;
61249;Laerm;47119;49.130;9.218;2023-01-15T00:19:11;42.09;33.59;55.75;;
61249;Laerm;47119;49.130;9.218;2023-01-15T00:21:39;47.90;32.49;66.70;;
61249;Laerm;47119;49.130;9.218;2023-01-15T00:24:08;42.10;32.08;52.35;;
61249;Laerm;47119;49.130;9.218;2023-01-15T00:26:52;41.35;31.69;51.56;;
61249;Laerm;47119;49.130;9.218;2023-01-15T00:29:37;44.68;32.45;61.33;;
61249;Laerm;47119;49.130;9.218;2023-01-15T00:32:07;43.18;32.39;57.22;;
61249;Laerm;47119;49.130;9.218;2023-01-15T00:34:37;46.61;31.20;67.47;;
61249;Laerm;47119;49.130;9.218;2023-01-15T00:37:07;46.98;31.09;65.51;;
61249;Laerm;47119;49.130;9.218;2023-01-15T00:39:34;39.85;31.13;50.86;;
61249;Laerm;47119;49.130;9.218;2023-01-15T00:42:01;43.32;32.65;56.78;;
61249;Laerm;47119;49.130;9.218;2023-01-15T00:44:31;47.51;31.97;67.66;;
61249;Laerm;47119;49.130;9.218;2023-01-15T00:46:58;41.67;32.35;65.16;;
61249;Laerm;47119;49.130;9.218;2023-01-15T00:49:26;43.26;33.56;53.56;;
61249;Laerm;47119;49.130;9.218;2023-01-15T00:51:57;40.61;31.83;52.77;;
61249;Laerm;47119;49.130;9.218;2023-01-15T00:54:27;51.43;35.74;65.32;;
61249;Laerm;47119;49.130;9.218;2023-01-15T00:56:54;49.28;34.09;65.01;;
61249;Laerm;47119;49.130;9.218;2023-01-15T00:59:22;44.54;32.32;54.77;;
61249;Laerm;47119;49.130;9.218;2023-01-15T01:01:51;46.61;32.79;61.56;;
61249;Laerm;47119;49.130;9.218;2023-01-15T01:04:18;45.02;31.63;63.81;;
61249;Laerm;47119;49.130;9.218;2023-01-15T01:06:47;49.36;30.82;68.22;;
61249;Laerm;47119;49.130;9.218;2023-01-15T01:09:16;44.51;32.10;60.90;;
61249;Laerm;47119;49.130;9.218;2023-01-15T01:11:43;55.44;32.45;88.88;;
61249;Laerm;47119;49.130;9.218;2023-01-15T01:14:12;49.03;31.87;64.09;;
61249;Laerm;47119;49.130;9.218;2023-01-15T01:16:40;48.43;34.98;64.22;;
61249;Laerm;47119;49.130;9.218;2023-01-15T01:19:10;50.52;34.91;64.00;;
61249;Laerm;47119;49.130;9.218;2023-01-15T01:21:40;45.67;31.80;63.61;;
61249;Laerm;47119;49.130;9.218;2023-01-15T01:24:10;44.96;32.36;55.23;;
61249;Laerm;47119;49.130;9.218;2023-01-15T01:26:40;41.54;30.85;51.58;;
61249;Laerm;47119;49.130;9.218;2023-01-15T01:29:11;46.58;30.58;63.65;;
61249;Laerm;47119;49.130;9.218;2023-01-15T01:31:38;46.50;31.48;61.96;;
61249;Laerm;47119;49.130;9.218;2023-01-15T01:34:07;40.10;31.37;53.89;;
61249;Laerm;47119;49.130;9.218;2023-01-15T01:36:38;44.36;30.88;59.79;;
61249;Laerm;47119;49.130;9.218;2023-01-15T01:39:12;37.59;30.48;49.36;;
61249;Laerm;47119;49.130;9.218;2023-01-15T01:41:43;33.32;29.88;42.59;;
61249;Laerm;47119;49.130;9.218;2023-01-15T01:45:00;42.49;30.89;61.15;;
61249;Laerm;47119;49.130;9.218;2023-01-15T01:47:32;46.86;30.36;64.37;;
61249;Laerm;47119;49.130;9.218;2023-01-15T01:50:08;42.11;30.72;53.29;;
61249;Laerm;47119;49.130;9.218;2023-01-15T01:52:44;38.56;30.38;49.68;;
61249;Laerm;47119;49.130;9.218;2023-01-15T01:55:19;37.61;30.14;47.52;;
61249;Laerm;47119;49.130;9.218;2023-01-15T01:57:55;47.55;32.36;61.56;;
61249;Laerm;47119;49.130;9.218;2023-01-15T02:00:25;45.12;33.27;57.18;;
61249;Laerm;47119;49.130;9.218;2023-01-15T02:02:54;48.27;33.16;68.10;;
61249;Laerm;47119;49.130;9.218;2023-01-15T02:05:28;46.44;31.01;64.80;;
61249;Laerm;47119;49.130;9.218;2023-01-15T02:07:57;45.61;30.44;62.98;;
61249;Laerm;47119;49.130;9.218;2023-01-15T02:10:26;46.50;30.57;65.80;;
61249;Laerm;47119;49.130;9.218;2023-01-15T02:13:03;46.26;30.59;65.62;;
61249;Laerm;47119;49.130;9.218;2023-01-15T02:15:36;37.34;30.06;50.47;;
61249;Laerm;47119;49.130;9.218;2023-01-15T02:18:16;34.91;30.19;53.73;;
61249;Laerm;47119;49.130;9.218;2023-01-15T02:20:51;43.60;30.45;56.60;;
61249;Laerm;47119;49.130;9.218;2023-01-15T02:23:49;42.72;30.71;60.22;;
61249;Laerm;47119;49.130;9.218;2023-01-15T02:27:09;48.93;31.95;64.64;;
61249;Laerm;47119;49.130;9.218;2023-01-15T02:29:49;46.06;32.90;61.90;;
61249;Laerm;47119;49.130;9.218;2023-01-15T02:32:28;47.06;32.01;64.27;;
61249;Laerm;47119;49.130;9.218;2023-01-15T02:35:05;39.59;30.64;52.64;;
61249;Laerm;47119;49.130;9.218;2023-01-15T02:37:40;42.49;29.71;55.71;;
61249;Laerm;47119;49.130;9.218;2023-01-15T02:40:15;45.75;31.15;62.42;;
61249;Laerm;47119;49.130;9.218;2023-01-15T02:42:49;40.82;32.26;53.10;;
61249;Laerm;47119;49.130;9.218;2023-01-15T02:45:23;48.71;33.73;66.72;;
61249;Laerm;47119;49.130;9.218;2023-01-15T02:47:55;51.75;32.69;69.84;;
61249;Laerm;47119;49.130;9.218;2023-01-15T02:50:31;40.82;30.66;53.66;;
61249;Laerm;47119;49.130;9.218;2023-01-15T02:53:07;38.92;30.19;52.85;;
61249;Laerm;47119;49.130;9.218;2023-01-15T02:55:43;41.99;30.18;53.78;;
61249;Laerm;47119;49.130;9.218;2023-01-15T02:58:23;41.13;31.03;55.40;;
61249;Laerm;47119;49.130;9.218;2023-01-15T03:00:55;46.81;31.48;66.33;;
61249;Laerm;47119;49.130;9.218;2023-01-15T03:03:36;36.21;31.36;48.53;;
61249;Laerm;47119;49.130;9.218;2023-01-15T03:06:14;44.97;31.79;62.96;;
61249;Laerm;47119;49.130;9.218;2023-01-15T03:08:46;42.99;31.72;54.63;;
61249;Laerm;47119;49.130;9.218;2023-01-15T03:11:18;41.89;30.88;54.97;;
61249;Laerm;47119;49.130;9.218;2023-01-15T03:13:53;49.01;30.36;68.84;;
61249;Laerm;47119;49.130;9.218;2023-01-15T03:16:33;52.67;30.22;75.80;;
61249;Laerm;47119;49.130;9.218;2023-01-15T03:19:18;53.98;31.12;75.75;;
61249;Laerm;47119;49.130;9.218;2023-01-15T03:21:54;44.03;29.46;62.56;;
61249;Laerm;47119;49.130;9.218;2023-01-15T03:24:30;44.69;30.16;60.80;;
61249;Laerm;47119;49.130;9.218;2023-01-15T03:27:01;38.01;29.04;51.77;;
61249;Laerm;47119;49.130;9.218;2023-01-15T03:29:36;40.39;30.71;56.39;;
61249;Laerm;47119;49.130;9.218;2023-01-15T03:32:07;48.35;29.83;66.31;;
61249;Laerm;47119;49.130;9.218;2023-01-15T03:34:41;41.44;30.80;55.43;;
61249;Laerm;47119;49.130;9.218;2023-01-15T03:37:11;42.54;29.93;56.72;;
61249;Laerm;47119;49.130;9.218;2023-01-15T03:39:42;38.73;30.15;56.02;;
61249;Laerm;47119;49.130;9.218;2023-01-15T03:42:41;41.27;30.15;58.93;;
61249;Laerm;47119;49.130;9.218;2023-01-15T03:45:26;44.71;30.04;60.23;;
61249;Laerm;47119;49.130;9.218;2023-01-15T03:48:04;42.24;30.99;56.14;;
61249;Laerm;47119;49.130;9.218;2023-01-15T03:50:46;35.98;30.68;43.00;;
61249;Laerm;47119;49.130;9.218;2023-01-15T03:53:20;40.70;30.65;52.34;;
61249;Laerm;47119;49.130;9.218;2023-01-15T03:56:05;47.80;32.19;66.71;;
61249;Laerm;47119;49.130;9.218;2023-01-15T03:58:44;41.24;30.44;60.73;;
61249;Laerm;47119;49.130;9.218;2023-01-15T04:01:26;38.73;30.41;53.07;;
61249;Laerm;47119;49.130;9.218;2023-01-15T04:04:00;45.87;31.50;65.01;;
61249;Laerm;47119;49.130;9.218;2023-01-15T04:06:32;51.18;33.69;68.58;;
61249;Laerm;47119;49.130;9.218;2023-01-15T04:09:05;49.24;31.33;70.88;;
61249;Laerm;47119;49.130;9.218;2023-01-15T04:11:37;37.26;30.65;54.07;;
61249;Laerm;47119;49.130;9.218;2023-01-15T04:14:06;46.79;29.59;67.51;;
61249;Laerm;47119;49.130;9.218;2023-01-15T04:16:47;46.81;31.16;65.35;;
61249;Laerm;47119;49.130;9.218;2023-01-15T04:19:15;46.26;32.34;61.37;;
61249;Laerm;47119;49.130;9.218;2023-01-15T04:21:50;43.52;32.85;57.34;;
61249;Laerm;47119;49.130;9.218;2023-01-15T04:24:18;46.08;30.46;66.15;;
61249;Laerm;47119;49.130;9.218;2023-01-15T04:26:45;43.68;31.16;60.86;;
61249;Laerm;47119;49.130;9.218;2023-01-15T04:29:14;40.72;31.56;53.81;;
61249;Laerm;47119;49.130;9.218;2023-01-15T04:31:41;38.68;30.33;50.27;;
61249;Laerm;47119;49.130;9.218;2023-01-15T04:34:09;41.10;30.68;52.09;;
61249;Laerm;47119;49.130;9.218;2023-01-15T04:36:37;49.42;32.66;73.84;;
61249;Laerm;47119;49.130;9.218;2023-01-15T04:39:04;55.44;41.44;84.51;;
61249;Laerm;47119;49.130;9.218;2023-01-15T04:41:31;60.87;39.83;91.53;;
61249;Laerm;47119;49.130;9.218;2023-01-15T04:44:16;58.64;39.94;92.27;;
61249;Laerm;47119;49.130;9.218;2023-01-15T04:46:46;50.90;38.05;73.84;;
61249;Laerm;47119;49.130;9.218;2023-01-15T04:49:16;52.07;37.39;80.05;;
61249;Laerm;47119;49.130;9.218;2023-01-15T04:51:44;54.90;36.92;87.10;;
61249;Laerm;47119;49.130;9.218;2023-01-15T04:54:16;52.54;38.01;72.55;;
61249;Laerm;47119;49.130;9.218;2023-01-15T04:56:47;52.59;36.19;75.07;;
61249;Laerm;47119;49.130;9.218;2023-01-15T04:59:18;50.60;35.55;76.39;;
61249;Laerm;47119;49.130;9.218;2023-01-15T05:01:46;46.88;34.03;73.79;;
61249;Laerm;47119;49.130;9.218;2023-01-15T05:04:15;48.36;33.28;76.31;;
61249;Laerm;47119;49.130;9.218;2023-01-15T05:06:42;44.50;33.09;68.36;;
61249;Laerm;47119;49.130;9.218;2023-01-15T05:09:09;43.80;32.98;69.07;;
61249;Laerm;47119;49.130;9.218;2023-01-15T05:11:40;45.48;33.11;71.39;;
61249;Laerm;47119;49.130;9.218;2023-01-15T05:14:08;47.65;32.61;69.08;;
61249;Laerm;47119;49.130;9.218;2023-01-15T05:16:35;43.97;30.52;68.92;;
61249;Laerm;47119;49.130;9.218;2023-01-15T05:19:04;45.71;30.99;76.34;;
61249;Laerm;47119;49.130;9.218;2023-01-15T05:21:38;43.43;30.19;68.21;;
61249;Laerm;47119;49.130;9.218;2023-01-15T05:24:07;46.11;30.32;77.93;;
61249;Laerm;47119;49.130;9.218;2023-01-15T05:26:35;47.68;31.45;70.71;;
61249;Laerm;47119;49.130;9.218;2023-01-15T05:29:03;49.75;33.17;71.15;;
61249;Laerm;47119;49.130;9.218;2023-01-15T05:31:31;44.75;32.57;69.86;;
61249;Laerm;47119;49.130;9.218;2023-01-15T05:33:59;49.78;35.14;69.89;;
61249;Laerm;47119;49.130;9.218;2023-01-15T05:36:31;51.04;33.79;69.75;;
61249;Laerm;47119;49.130;9.218;2023-01-15T05:38:59;52.89;33.40;72.14;;
61249;Laerm;47119;49.130;9.218;2023-01-15T05:41:28;49.04;35.56;72.58;;
61249;Laerm;47119;49.130;9.218;2023-01-15T05:44:14;51.47;35.74;82.97;;
61249;Laerm;47119;49.130;9.218;2023-01-15T05:46:43;58.14;34.96;91.81;;
61249;Laerm;47119;49.130;9.218;2023-01-15T05:49:14;57.86;35.39;86.51;;
61249;Laerm;47119;49.130;9.218;2023-01-15T05:51:42;51.32;35.14;81.04;;
61249;Laerm;47119;49.130;9.218;2023-01-15T05:54:16;53.37;34.58;82.79;;
61249;Laerm;47119;49.130;9.218;2023-01-15T05:56:46;46.47;34.60;70.58;;
61249;Laerm;47119;49.130;9.218;2023-01-15T05:59:15;49.92;34.66;71.15;;
61249;Laerm;47119;49.130;9.218;2023-01-15T06:01:43;49.81;33.82;73.92;;
61249;Laerm;47119;49.130;9.218;2023-01-15T06:04:12;47.38;33.71;70.39;;
61249;Laerm;47119;49.130;9.218;2023-01-15T06:06:40;47.69;33.27;78.76;;
61249;Laerm;47119;49.130;9.218;2023-01-15T06:09:09;50.51;34.55;71.10;;
61249;Laerm;47119;49.130;9.218;2023-01-15T06:11:42;48.06;34.55;77.56;;
61249;Laerm;47119;49.130;9.218;2023-01-15T06:14:10;51.30;35.81;74.65;;
61249;Laerm;47119;49.130;9.218;2023-01-15T06:16:38;49.12;35.04;70.38;;
61249;Laerm;47119;49.130;9.218;2023-01-15T06:19:10;50.79;35.76;75.64;;
61249;Laerm;47119;49.130;9.218;2023-01-15T06:21:37;50.46;36.03;76.49;;
61249;Laerm;47119;49.130;9.218;2023-01-15T06:24:08;54.47;36.35;85.69;;
61249;Laerm;47119;49.130;9.218;2023-01-15T06:26:37;54.69;36.64;86.93;;
61249;Laerm;47119;49.130;9.218;2023-01-15T06:29:06;50.87;37.50;74.27;;
61249;Laerm;47119;49.130;9.218;2023-01-15T06:31:33;52.75;37.84;76.92;;
61249;Laerm;47119;49.130;9.218;2023-01-15T06:34:03;52.61;37.73;74.94;;
61249;Laerm;47119;49.130;9.218;2023-01-15T06:36:30;49.81;37.85;75.71;;
61249;Laerm;47119;49.130;9.218;2023-01-15T06:38:59;48.04;36.59;77.49;;
61249;Laerm;47119;49.130;9.218;2023-01-15T06:41:29;52.07;37.50;85.77;;
61249;Laerm;47119;49.130;9.218;2023-01-15T06:44:18;47.50;36.46;74.28;;
61249;Laerm;47119;49.130;9.218;2023-01-15T06:47:12;49.94;36.96;81.91;;
61249;Laerm;47119;49.130;9.218;2023-01-15T06:49:47;53.18;37.55;85.31;;
61249;Laerm;47119;49.130;9.218;2023-01-15T06:52:14;52.01;38.05;71.41;;
61249;Laerm;47119;49.130;9.218;2023-01-15T06:54:41;52.79;37.83;72.95;;
61249;Laerm;47119;49.130;9.218;2023-01-15T06:57:13;50.16;36.92;78.46;;
61249;Laerm;47119;49.130;9.218;2023-01-15T06:59:42;48.72;37.21;70.88;;
61249;Laerm;47119;49.130;9.218;2023-01-15T07:02:09;53.36;40.31;69.15;;
61249;Laerm;47119;49.130;9.218;2023-01-15T07:04:37;49.48;38.34;70.30;;
61249;Laerm;47119;49.130;9.218;2023-01-15T07:07:04;50.12;37.31;75.01;;
61249;Laerm;47119;49.130;9.218;2023-01-15T07:09:31;53.79;37.01;78.59;;
61249;Laerm;47119;49.130;9.218;2023-01-15T07:11:58;48.52;36.37;76.60;;
61249;Laerm;47119;49.130;9.218;2023-01-15T07:14:26;50.11;41.70;70.78;;
61249;Laerm;47119;49.130;9.218;2023-01-15T07:16:55;52.34;41.57;77.33;;
61249;Laerm;47119;49.130;9.218;2023-01-15T07:19:26;52.94;39.85;79.97;;
61249;Laerm;47119;49.130;9.218;2023-01-15T07:21:55;55.51;40.82;75.39;;
61249;Laerm;47119;49.130;9.218;2023-01-15T07:24:25;50.72;38.40;71.24;;
61249;Laerm;47119;49.130;9.218;2023-01-15T07:26:52;48.77;38.39;74.35;;
61249;Laerm;47119;49.130;9.218;2023-01-15T07:29:19;49.79;37.36;71.58;;
61249;Laerm;47119;49.130;9.218;2023-01-15T07:31:48;52.00;36.91;77.96;;
61249;Laerm;47119;49.130;9.218;2023-01-15T07:34:19;47.52;37.78;67.65;;
61249;Laerm;47119;49.130;9.218;2023-01-15T07:36:46;46.68;35.96;69.26;;
61249;Laerm;47119;49.130;9.218;2023-01-15T07:39:14;45.40;35.74;69.46;;
61249;Laerm;47119;49.130;9.218;2023-01-15T07:41:43;50.88;36.74;67.65;;
61249;Laerm;47119;49.130;9.218;2023-01-15T07:44:33;47.89;35.51;67.38;;
61249;Laerm;47119;49.130;9.218;2023-01-15T07:47:20;53.49;38.81;74.70;;
61249;Laerm;47119;49.130;9.218;2023-01-15T07:50:09;49.61;35.70;66.04;;
61249;Laerm;47119;49.130;9.218;2023-01-15T07:52:38;45.27;34.99;66.03;;
61249;Laerm;47119;49.130;9.218;2023-01-15T07:55:06;46.02;35.22;61.98;;
61249;Laerm;47119;49.130;9.218;2023-01-15T07:57:36;55.60;36.62;72.40;;
61249;Laerm;47119;49.130;9.218;2023-01-15T08:00:28;52.63;37.11;67.75;;
61249;Laerm;47119;49.130;9.218;2023-01-15T08:02:55;47.23;37.00;56.41;;
61249;Laerm;47119;49.130;9.218;2023-01-15T08:05:24;50.57;36.44;66.71;;
61249;Laerm;47119;49.130;9.218;2023-01-15T08:07:51;48.60;35.19;64.34;;
61249;Laerm;47119;49.130;9.218;2023-01-15T08:10:18;46.95;37.21;63.49;;
61249;Laerm;47119;49.130;9.218;2023-01-15T08:12:49;48.06;37.87;73.36;;
61249;Laerm;47119;49.130;9.218;2023-01-15T08:15:38;54.15;37.94;74.51;;
61249;Laerm;47119;49.130;9.218;2023-01-15T08:18:10;48.37;37.07;71.53;;
61249;Laerm;47119;49.130;9.218;2023-01-15T08:20:38;52.43;41.14;67.95;;
61249;Laerm;47119;49.130;9.218;2023-01-15T08:23:15;50.00;38.46;65.60;;
61249;Laerm;47119;49.130;9.218;2023-01-15T08:26:02;54.19;39.57;70.76;;
61249;Laerm;47119;49.130;9.218;2023-01-15T08:28:31;54.59;41.95;68.60;;
61249;Laerm;47119;49.130;9.218;2023-01-15T08:30:58;53.56;41.21;73.73;;
61249;Laerm;47119;49.130;9.218;2023-01-15T08:33:25;54.61;42.34;69.46;;
61249;Laerm;47119;49.130;9.218;2023-01-15T08:36:04;54.20;41.39;68.64;;
61249;Laerm;47119;49.130;9.218;2023-01-15T08:38:31;56.01;38.80;74.09;;
61249;Laerm;47119;49.130;9.218;2023-01-15T08:41:24;52.88;39.23;73.11;;
61249;Laerm;47119;49.130;9.218;2023-01-15T08:44:16;47.49;38.18;66.46;;
61249;Laerm;47119;49.130;9.218;2023-01-15T08:46:45;52.69;37.96;71.06;;
61249;Laerm;47119;49.130;9.218;2023-01-15T08:49:18;54.43;38.91;75.71;;
61249;Laerm;47119;49.130;9.218;2023-01-15T08:51:54;50.99;39.74;67.74;;
61249;Laerm;47119;49.130;9.218;2023-01-15T08:54:22;56.08;42.31;72.08;;
61249;Laerm;47119;49.130;9.218;2023-01-15T08:56:58;52.70;42.04;71.49;;
61249;Laerm;47119;49.130;9.218;2023-01-15T08:59:38;54.02;43.53;69.80;;
61249;Laerm;47119;49.130;9.218;2023-01-15T09:02:25;53.40;45.73;73.65;;
61249;Laerm;47119;49.130;9.218;2023-01-15T09:05:04;53.79;44.90;68.63;;
61249;Laerm;47119;49.130;9.218;2023-01-15T09:07:40;56.73;43.82;75.71;;
61249;Laerm;47119;49.130;9.218;2023-01-15T09:10:13;51.24;40.28;65.82;;
61249;Laerm;47119;49.130;9.218;2023-01-15T09:12:50;55.63;39.57;71.48;;
61249;Laerm;47119;49.130;9.218;2023-01-15T09:15:19;53.87;44.28;72.22;;
61249;Laerm;47119;49.130;9.218;2023-01-15T09:17:49;55.11;42.90;70.65;;
61249;Laerm;47119;49.130;9.218;2023-01-15T09:20:21;56.38;41.73;71.39;;
61249;Laerm;47119;49.130;9.218;2023-01-15T09:23:03;50.39;41.10;75.68;;
61249;Laerm;47119;49.130;9.218;2023-01-15T09:25:40;52.70;38.62;69.34;;
61249;Laerm;47119;49.130;9.218;2023-01-15T09:28:09;52.66;39.98;68.61;;
61249;Laerm;47119;49.130;9.218;2023-01-15T09:30:46;52.35;39.38;68.14;;
61249;Laerm;47119;49.130;9.218;2023-01-15T09:33:13;52.75;39.34;71.25;;
61249;Laerm;47119;49.130;9.218;2023-01-15T09:35:44;52.68;39.46;68.81;;
61249;Laerm;47119;49.130;9.218;2023-01-15T09:38:14;54.23;39.72;70.80;;
61249;Laerm;47119;49.130;9.218;2023-01-15T09:40:49;54.33;41.43;69.23;;
61249;Laerm;47119;49.130;9.218;2023-01-15T09:43:32;55.13;40.01;72.11;;
61249;Laerm;47119;49.130;9.218;2023-01-15T09:46:10;53.72;41.92;70.40;;
61249;Laerm;47119;49.130;9.218;2023-01-15T09:48:50;53.74;41.56;73.93;;
61249;Laerm;47119;49.130;9.218;2023-01-15T09:51:32;52.98;41.29;70.87;;
61249;Laerm;47119;49.130;9.218;2023-01-15T09:54:22;55.95;41.12;73.54;;
61249;Laerm;47119;49.130;9.218;2023-01-15T09:56:55;55.38;43.66;69.02;;
61249;Laerm;47119;49.130;9.218;2023-01-15T09:59:33;57.10;40.24;70.84;;
61249;Laerm;47119;49.130;9.218;2023-01-15T10:02:14;53.46;41.68;70.29;;
61249;Laerm;47119;49.130;9.218;2023-01-15T10:04:52;55.18;40.61;69.65;;
61249;Laerm;47119;49.130;9.218;2023-01-15T10:07:42;54.40;43.24;71.85;;
61249;Laerm;47119;49.130;9.218;2023-01-15T10:10:16;53.90;40.04;72.21;;
61249;Laerm;47119;49.130;9.218;2023-01-15T10:12:47;52.44;42.31;66.97;;
61249;Laerm;47119;49.130;9.218;2023-01-15T10:15:24;55.39;40.50;70.58;;
61249;Laerm;47119;49.130;9.218;2023-01-15T10:17:58;54.09;40.53;69.27;;
61249;Laerm;47119;49.130;9.218;2023-01-15T10:21:18;55.36;41.01;70.16;;
61249;Laerm;47119;49.130;9.218;2023-01-15T10:24:00;55.93;41.44;71.87;;
61249;Laerm;47119;49.130;9.218;2023-01-15T10:26:36;50.10;40.34;70.16;;
61249;Laerm;47119;49.130;9.218;2023-01-15T10:29:17;54.64;40.97;72.85;;
61249;Laerm;47119;49.130;9.218;2023-01-15T10:31:52;55.78;41.49;74.02;;
61249;Laerm;47119;49.130;9.218;2023-01-15T10:34:59;53.21;43.64;65.91;;
61249;Laerm;47119;49.130;9.218;2023-01-15T10:37:49;54.01;41.02;67.78;;
61249;Laerm;47119;49.130;9.218;2023-01-15T10:40:42;51.70;41.08;64.78;;
61249;Laerm;47119;49.130;9.218;2023-01-15T10:43:21;54.62;43.41;71.33;;
61249;Laerm;47119;49.130;9.218;2023-01-15T10:45:55;52.53;42.91;67.65;;
61249;Laerm;47119;49.130;9.218;2023-01-15T10:48:32;54.12;41.32;70.14;;
61249;Laerm;47119;49.130;9.218;2023-01-15T10:51:11;56.41;40.97;71.47;;
61249;Laerm;47119;49.130;9.218;2023-01-15T10:53:45;55.55;41.99;69.33;;
61249;Laerm;47119;49.130;9.218;2023-01-15T10:56:27;50.77;40.35;70.09;;
61249;Laerm;47119;49.130;9.218;2023-01-15T10:59:10;56.64;43.43;73.53;;
61249;Laerm;47119;49.130;9.218;2023-01-15T11:01:39;53.74;40.49;69.00;;
61249;Laerm;47119;49.130;9.218;2023-01-15T11:04:35;56.61;43.53;71.08;;
61249;Laerm;47119;49.130;9.218;2023-01-15T11:07:08;52.25;40.83;67.37;;
61249;Laerm;47119;49.130;9.218;2023-01-15T11:09:40;54.38;42.13;70.19;;
61249;Laerm;47119;49.130;9.218;2023-01-15T11:12:22;56.86;42.12;74.91;;
61249;Laerm;47119;49.130;9.218;2023-01-15T11:15:34;53.65;41.39;69.17;;
61249;Laerm;47119;49.130;9.218;2023-01-15T11:18:24;55.28;43.22;68.57;;
61249;Laerm;47119;49.130;9.218;2023-01-15T11:21:12;52.51;40.44;65.84;;
61249;Laerm;47119;49.130;9.218;2023-01-15T11:24:13;52.59;40.59;69.39;;
61249;Laerm;47119;49.130;9.218;2023-01-15T11:27:07;53.31;41.53;65.60;;
61249;Laerm;47119;49.130;9.218;2023-01-15T11:30:33;54.20;40.59;66.05;;
61249;Laerm;47119;49.130;9.218;2023-01-15T11:33:24;55.19;39.87;69.18;;
61249;Laerm;47119;49.130;9.218;2023-01-15T11:35:55;53.54;41.99;67.15;;
61249;Laerm;47119;49.130;9.218;2023-01-15T11:38:25;54.88;41.97;71.37;;
61249;Laerm;47119;49.130;9.218;2023-01-15T11:40:56;53.37;38.78;68.81;;
61249;Laerm;47119;49.130;9.218;2023-01-15T11:43:27;52.17;41.24;64.28;;
61249;Laerm;47119;49.130;9.218;2023-01-15T11:46:29;51.41;39.70;65.82;;
61249;Laerm;47119;49.130;9.218;2023-01-15T11:49:19;52.73;39.85;66.11;;
61249;Laerm;47119;49.130;9.218;2023-01-15T11:52:07;53.85;40.79;69.56;;
61249;Laerm;47119;49.130;9.218;2023-01-15T11:54:38;53.88;39.80;67.30;;
61249;Laerm;47119;49.130;9.218;2023-01-15T11:57:07;54.96;43.72;68.02;;
61249;Laerm;47119;49.130;9.218;2023-01-15T11:59:35;51.72;39.94;66.43;;
61249;Laerm;47119;49.130;9.218;2023-01-15T12:05:31;53.01;41.10;67.94;;
61249;Laerm;47119;49.130;9.218;2023-01-15T12:08:08;53.84;42.19;67.14;;
61249;Laerm;47119;49.130;9.218;2023-01-15T12:10:48;52.32;42.19;70.95;;
61249;Laerm;47119;49.130;9.218;2023-01-15T12:13:45;51.92;42.03;63.94;;
61249;Laerm;47119;49.130;9.218;2023-01-15T12:16:29;53.13;43.45;66.20;;
61249;Laerm;47119;49.130;9.218;2023-01-15T12:19:09;53.78;43.28;67.24;;
61249;Laerm;47119;49.130;9.218;2023-01-15T12:25:37;50.92;41.48;64.78;;
61249;Laerm;47119;49.130;9.218;2023-01-15T12:28:34;52.45;43.95;66.07;;
61249;Laerm;47119;49.130;9.218;2023-01-15T12:31:11;54.35;41.55;72.80;;
61249;Laerm;47119;49.130;9.218;2023-01-15T12:34:20;54.84;40.55;70.39;;
61249;Laerm;47119;49.130;9.218;2023-01-15T12:36:51;52.65;41.35;66.00;;
61249;Laerm;47119;49.130;9.218;2023-01-15T12:39:51;55.39;39.83;76.14;;
61249;Laerm;47119;49.130;9.218;2023-01-15T12:42:28;51.98;40.44;66.28;;
61249;Laerm;47119;49.130;9.218;2023-01-15T12:45:23;53.20;42.58;66.87;;
61249;Laerm;47119;49.130;9.218;2023-01-15T12:48:17;53.73;39.53;76.42;;
61249;Laerm;47119;49.130;9.218;2023-01-15T12:51:00;53.10;39.95;67.49;;
61249;Laerm;47119;49.130;9.218;2023-01-15T12:53:43;53.38;42.56;70.14;;
61249;Laerm;47119;49.130;9.218;2023-01-15T12:56:54;51.50;39.16;66.97;;
61249;Laerm;47119;49.130;9.218;2023-01-15T12:59:28;52.13;41.30;66.45;;
61249;Laerm;47119;49.130;9.218;2023-01-15T13:02:12;50.12;38.99;65.91;;
61249;Laerm;47119;49.130;9.218;2023-01-15T13:04:48;52.91;41.31;68.53;;
61249;Laerm;47119;49.130;9.218;2023-01-15T13:07:24;53.45;41.06;64.14;;
61249;Laerm;47119;49.130;9.218;2023-01-15T13:10:03;54.28;42.26;70.32;;
61249;Laerm;47119;49.130;9.218;2023-01-15T13:12:33;51.89;41.71;64.23;;
61249;Laerm;47119;49.130;9.218;2023-01-15T13:15:13;55.82;41.14;71.61;;
61249;Laerm;47119;49.130;9.218;2023-01-15T13:17:58;51.43;39.75;63.58;;
61249;Laerm;47119;49.130;9.218;2023-01-15T13:20:45;54.02;41.67;65.84;;
61249;Laerm;47119;49.130;9.218;2023-01-15T13:23:55;52.37;37.63;66.52;;
61249;Laerm;47119;49.130;9.218;2023-01-15T13:26:59;52.67;42.11;70.38;;
61249;Laerm;47119;49.130;9.218;2023-01-15T13:29:53;53.84;39.10;70.09;;
61249;Laerm;47119;49.130;9.218;2023-01-15T13:32:28;53.19;42.61;65.00;;
61249;Laerm;47119;49.130;9.218;2023-01-15T13:35:08;54.20;41.23;67.05;;
61249;Laerm;47119;49.130;9.218;2023-01-15T13:37:43;51.26;40.38;72.61;;
61249;Laerm;47119;49.130;9.218;2023-01-15T13:40:26;53.46;41.11;70.02;;
61249;Laerm;47119;49.130;9.218;2023-01-15T13:43:07;50.90;38.72;67.13;;
61249;Laerm;47119;49.130;9.218;2023-01-15T13:45:48;54.24;42.38;68.02;;
61249;Laerm;47119;49.130;9.218;2023-01-15T13:48:28;53.68;42.19;66.92;;
61249;Laerm;47119;49.130;9.218;2023-01-15T13:51:24;54.32;40.62;71.40;;
61249;Laerm;47119;49.130;9.218;2023-01-15T13:53:56;50.90;40.81;62.25;;
61249;Laerm;47119;49.130;9.218;2023-01-15T13:56:32;54.84;42.09;71.45;;
61249;Laerm;47119;49.130;9.218;2023-01-15T13:59:33;51.86;39.81;64.60;;
61249;Laerm;47119;49.130;9.218;2023-01-15T14:02:49;53.45;39.53;78.67;;
61249;Laerm;47119;49.130;9.218;2023-01-15T14:05:34;52.45;39.46;70.25;;
61249;Laerm;47119;49.130;9.218;2023-01-15T14:08:15;53.22;37.47;66.79;;
61249;Laerm;47119;49.130;9.218;2023-01-15T14:10:46;48.37;37.86;62.91;;
61249;Laerm;47119;49.130;9.218;2023-01-15T14:16:52;52.04;37.64;68.24;;
61249;Laerm;47119;49.130;9.218;2023-01-15T14:19:45;51.52;40.90;65.09;;
61249;Laerm;47119;49.130;9.218;2023-01-15T14:22:45;51.89;40.39;65.69;;
61249;Laerm;47119;49.130;9.218;2023-01-15T14:25:29;55.00;40.94;68.03;;
61249;Laerm;47119;49.130;9.218;2023-01-15T14:28:47;53.82;38.48;70.12;;
61249;Laerm;47119;49.130;9.218;2023-01-15T14:31:49;50.60;39.97;66.75;;
61249;Laerm;47119;49.130;9.218;2023-01-15T14:34:26;55.38;39.25;67.86;;
61249;Laerm;47119;49.130;9.218;2023-01-15T14:36:57;52.45;41.36;71.20;;
61249;Laerm;47119;49.130;9.218;2023-01-15T14:39:45;52.84;40.93;65.88;;
61249;Laerm;47119;49.130;9.218;2023-01-15T14:42:24;51.85;38.85;63.09;;
61249;Laerm;47119;49.130;9.218;2023-01-15T14:45:25;53.45;40.83;65.53;;
61249;Laerm;47119;49.130;9.218;2023-01-15T14:47:56;49.60;36.35;62.01;;